Time;durP1;ratioP1;P1;durP2;ratioP2;P2;SDS_P1;SDS_P2;PMS_P1;PMS_P2;Temp;Humidity;BMP_temperature;BMP_pressure;BME280_temperature;BME280_humidity;BME280_pressure;Samples;Min_cycle;Max_cycle;Signal;HPM_P1;HPM_P2
2022/01/09 00:00:18;;;;;;;10.00;4.97;;;-0.60;69.40;;;;;;6183125;23;20444;-66
2022/01/09 00:02:43;;;;;;;9.32;4.65;;;-0.60;69.30;;;;;;6183024;23;20015;-66
2022/01/09 00:05:10;;;;;;;7.70;4.57;;;-0.60;69.30;;;;;;6183182;23;20049;-66
2022/01/09 00:07:36;;;;;;;8.77;4.70;;;-0.50;69.30;;;;;;6183134;23;20089;-67
2022/01/09 00:10:03;;;;;;;9.45;4.68;;;-0.50;69.40;;;;;;6183187;23;20437;-66
2022/01/09 00:12:29;;;;;;;10.15;5.18;;;-0.50;69.30;;;;;;6183162;23;20004;-66
2022/01/09 00:14:55;;;;;;;8.88;5.38;;;-0.50;69.20;;;;;;6182984;23;19997;-67
2022/01/09 00:17:20;;;;;;;12.13;6.53;;;-0.50;69.30;;;;;;6183293;23;20005;-66
2022/01/09 00:19:46;;;;;;;11.15;5.70;;;-0.50;69.00;;;;;;6183353;23;20056;-67
2022/01/09 00:22:14;;;;;;;11.27;5.93;;;-0.50;69.10;;;;;;6183272;23;20009;-66
2022/01/09 00:24:39;;;;;;;10.73;6.28;;;-0.50;69.10;;;;;;6183101;23;20009;-66
2022/01/09 00:27:05;;;;;;;11.75;6.35;;;-0.50;68.90;;;;;;6182885;23;20009;-67
2022/01/09 00:29:31;;;;;;;10.70;5.63;;;-0.50;69.00;;;;;;6182885;23;20001;-67
2022/01/09 00:31:56;;;;;;;9.98;5.60;;;-0.50;69.10;;;;;;6182683;23;20499;-67
2022/01/09 00:34:22;;;;;;;10.82;6.28;;;-0.50;69.10;;;;;;6182900;23;20108;-66
2022/01/09 00:36:48;;;;;;;11.25;6.10;;;-0.50;69.00;;;;;;6182820;23;20005;-67
2022/01/09 00:39:13;;;;;;;11.93;5.97;;;-0.50;68.80;;;;;;6183151;23;20005;-66
2022/01/09 00:41:39;;;;;;;11.95;5.82;;;-0.60;68.90;;;;;;6185068;23;20136;-66
2022/01/09 00:44:05;;;;;;;11.70;5.80;;;-0.60;68.90;;;;;;6184922;23;20443;-66
2022/01/09 00:46:33;;;;;;;11.80;6.30;;;-0.50;69.00;;;;;;6184792;23;20049;-67
2022/01/09 00:48:59;;;;;;;10.95;6.22;;;-0.50;69.00;;;;;;6184992;23;20004;-68
2022/01/09 00:51:25;;;;;;;10.90;6.15;;;-0.50;68.90;;;;;;6184985;23;19997;-65
2022/01/09 00:53:51;;;;;;;10.35;5.50;;;-0.50;69.00;;;;;;6185027;23;20005;-65
2022/01/09 00:56:16;;;;;;;9.70;5.38;;;-0.60;69.50;;;;;;6184702;23;20005;-67
2022/01/09 00:58:42;;;;;;;11.68;5.97;;;-0.60;69.80;;;;;;6184815;23;20451;-66
2022/01/09 01:01:08;;;;;;;11.40;5.75;;;-0.60;70.10;;;;;;6184836;23;20012;-66
2022/01/09 01:03:34;;;;;;;12.13;5.68;;;-0.60;70.50;;;;;;6184950;23;20005;-66
2022/01/09 01:06:00;;;;;;;10.13;5.20;;;-0.70;71.00;;;;;;6184744;23;20032;-66
2022/01/09 01:08:26;;;;;;;10.48;5.43;;;-0.70;71.40;;;;;;6185033;23;20080;-67
2022/01/09 01:10:51;;;;;;;12.80;6.35;;;-0.70;72.20;;;;;;6185478;23;20800;-66
2022/01/09 01:13:17;;;;;;;10.85;5.85;;;-0.80;72.90;;;;;;6184726;23;19997;-66
2022/01/09 01:15:42;;;;;;;13.35;6.60;;;-0.80;73.60;;;;;;6184687;23;20468;-67
2022/01/09 01:18:08;;;;;;;12.60;7.05;;;-0.90;74.80;;;;;;6184830;23;20052;-66
2022/01/09 01:20:34;;;;;;;13.48;7.43;;;-0.90;75.60;;;;;;6184638;23;20088;-66
2022/01/09 01:22:59;;;;;;;12.57;6.95;;;-1.00;76.10;;;;;;6184628;23;20032;-67
2022/01/09 01:25:26;;;;;;;12.90;6.75;;;-1.10;76.80;;;;;;6184626;23;19997;-67
2022/01/09 01:27:52;;;;;;;11.80;6.85;;;-1.20;76.90;;;;;;6184537;23;20016;-66
2022/01/09 01:30:18;;;;;;;11.50;6.30;;;-1.20;78.00;;;;;;6184565;23;20417;-67
2022/01/09 01:32:43;;;;;;;9.90;5.60;;;-1.20;77.80;;;;;;6184535;23;20012;-67
2022/01/09 01:35:10;;;;;;;9.70;5.45;;;-1.20;78.00;;;;;;6185028;23;20005;-67
2022/01/09 01:37:38;;;;;;;9.73;6.20;;;-1.20;77.90;;;;;;6185162;23;20092;-67
2022/01/09 01:40:18;;;;;;;10.48;6.10;;;-1.20;78.10;;;;;;6185127;23;20001;-67
2022/01/09 01:42:45;;;;;;;10.63;5.90;;;-1.20;78.50;;;;;;6185155;23;20333;-67
2022/01/09 01:45:12;;;;;;;9.88;5.82;;;-1.20;78.30;;;;;;6184704;23;20364;-67
2022/01/09 01:47:38;;;;;;;11.15;6.18;;;-1.20;78.40;;;;;;6184647;23;20065;-66
2022/01/09 01:50:05;;;;;;;11.52;6.15;;;-1.20;78.50;;;;;;6184531;23;20396;-67
2022/01/09 01:52:37;;;;;;;10.05;6.40;;;-1.20;78.70;;;;;;6184653;23;20043;-66
2022/01/09 01:55:05;;;;;;;11.80;7.47;;;-1.20;78.70;;;;;;6157708;23;20425;-66
2022/01/09 01:57:32;;;;;;;12.35;7.40;;;-1.10;79.10;;;;;;6184381;23;20730;-67
2022/01/09 01:59:57;;;;;;;13.73;7.97;;;-1.10;79.40;;;;;;6184332;23;20076;-67
2022/01/09 02:02:25;;;;;;;11.13;6.53;;;-1.10;79.30;;;;;;6184300;23;20044;-67
2022/01/09 02:04:51;;;;;;;10.82;6.68;;;-1.20;79.30;;;;;;6184170;23;20009;-67
2022/01/09 02:07:17;;;;;;;12.25;6.93;;;-1.20;79.50;;;;;;6158253;23;20309;-67
2022/01/09 02:09:44;;;;;;;11.43;6.50;;;-1.10;79.70;;;;;;6184138;23;20024;-67
2022/01/09 02:12:11;;;;;;;11.35;6.45;;;-1.10;79.60;;;;;;6184312;23;20009;-66
2022/01/09 02:14:38;;;;;;;11.68;6.57;;;-1.10;79.80;;;;;;6184157;23;20001;-67
2022/01/09 02:17:05;;;;;;;10.75;6.22;;;-1.10;80.00;;;;;;6184165;23;20008;-67
2022/01/09 02:19:30;;;;;;;10.82;6.13;;;-1.10;79.90;;;;;;6184086;23;20085;-66
2022/01/09 02:21:59;;;;;;;11.45;6.55;;;-1.10;80.00;;;;;;6184388;23;20009;-67
2022/01/09 02:24:25;;;;;;;9.90;5.75;;;-1.10;80.00;;;;;;6157501;23;20009;-67
2022/01/09 02:26:51;;;;;;;9.95;5.40;;;-1.00;80.10;;;;;;6184065;23;20090;-67
2022/01/09 02:29:17;;;;;;;10.85;5.55;;;-1.00;80.10;;;;;;6184060;23;20001;-66
2022/01/09 02:31:44;;;;;;;9.55;5.60;;;-1.00;80.10;;;;;;6184404;23;20111;-67
2022/01/09 02:34:10;;;;;;;10.18;5.40;;;-1.00;80.10;;;;;;6184167;23;20028;-67
2022/01/09 02:36:35;;;;;;;10.02;5.43;;;-1.00;80.10;;;;;;6183882;23;20001;-66
2022/01/09 02:39:01;;;;;;;9.25;5.40;;;-1.00;80.20;;;;;;6183900;23;20005;-68
2022/01/09 02:41:27;;;;;;;10.63;5.65;;;-1.00;80.80;;;;;;6183911;23;20077;-66
2022/01/09 02:43:53;;;;;;;9.80;5.63;;;-1.00;80.20;;;;;;6183704;23;20505;-66
2022/01/09 02:49:05;;;;;;;11.07;5.93;;;-1.00;80.60;;;;;;6183730;23;20447;-68
2022/01/09 02:51:31;;;;;;;12.50;6.85;;;-0.90;80.60;;;;;;6157288;23;20001;-67
2022/01/09 02:55:03;;;;;;;12.85;7.55;;;-0.90;80.60;;;;;;6183617;23;20004;-66
2022/01/09 02:56:42;;;;;;;12.63;7.28;;;-1.00;81.10;;;;;;6183550;23;20495;-68
2022/01/09 02:59:08;;;;;;;10.80;7.05;;;-1.00;81.20;;;;;;6183674;23;20083;-66
2022/01/09 03:01:33;;;;;;;11.70;7.40;;;-1.00;81.50;;;;;;6183619;23;20047;-65
2022/01/09 03:03:59;;;;;;;12.02;6.70;;;-1.00;81.50;;;;;;6183600;23;20008;-66
2022/01/09 03:06:25;;;;;;;12.30;7.25;;;-1.00;81.70;;;;;;6183690;23;20060;-66
2022/01/09 03:08:50;;;;;;;11.32;7.20;;;-1.00;81.90;;;;;;6183939;23;20409;-67
2022/01/09 03:11:16;;;;;;;11.85;7.22;;;-1.00;82.00;;;;;;6184133;23;20166;-66
2022/01/09 03:13:41;;;;;;;11.65;7.10;;;-1.00;82.00;;;;;;6184549;23;20008;-67
2022/01/09 03:16:07;;;;;;;11.98;7.45;;;-1.00;82.10;;;;;;6183430;23;20005;-68
2022/01/09 03:18:33;;;;;;;12.25;7.60;;;-1.00;82.30;;;;;;6183551;23;20008;-66
2022/01/09 03:20:58;;;;;;;13.90;8.13;;;-1.00;82.40;;;;;;6183664;23;20025;-67
2022/01/09 03:23:24;;;;;;;13.82;7.55;;;-1.00;82.70;;;;;;6183633;23;20072;-68
2022/01/09 03:25:49;;;;;;;13.90;7.78;;;-1.00;83.00;;;;;;6156986;23;20376;-67
2022/01/09 03:28:15;;;;;;;14.95;8.45;;;-1.00;83.00;;;;;;6183532;23;19997;-68
2022/01/09 03:30:41;;;;;;;14.07;7.85;;;-1.10;83.30;;;;;;6183555;23;20590;-68
2022/01/09 03:33:06;;;;;;;15.50;8.45;;;-1.10;83.40;;;;;;6183175;23;20433;-67
2022/01/09 03:35:32;;;;;;;14.82;8.15;;;-1.10;83.90;;;;;;6183446;23;20005;-66
2022/01/09 03:37:58;;;;;;;13.27;7.75;;;-1.10;83.80;;;;;;6183485;23;20000;-69
2022/01/09 03:40:26;;;;;;;13.75;7.45;;;-1.20;83.90;;;;;;6183370;23;20028;-67
2022/01/09 03:42:52;;;;;;;16.35;9.70;;;-1.10;84.10;;;;;;6183207;23;20059;-67
2022/01/09 03:45:19;;;;;;;15.60;8.93;;;-1.10;84.50;;;;;;6183455;23;20365;-67
2022/01/09 03:47:45;;;;;;;15.85;9.00;;;-1.10;84.70;;;;;;6183272;23;20009;-66
2022/01/09 03:50:12;;;;;;;16.27;9.45;;;-1.10;84.70;;;;;;6183479;23;20078;-66
2022/01/09 03:52:39;;;;;;;17.60;10.20;;;-1.10;84.90;;;;;;6183369;23;20321;-66
2022/01/09 03:55:07;;;;;;;18.70;10.05;;;-1.10;85.00;;;;;;6183420;23;20040;-66
2022/01/09 03:57:33;;;;;;;18.55;10.23;;;-1.10;84.80;;;;;;6183339;23;20409;-68
2022/01/09 03:59:58;;;;;;;19.95;10.75;;;-1.00;84.90;;;;;;6156834;23;20001;-67
2022/01/09 04:02:24;;;;;;;23.02;12.30;;;-1.00;85.10;;;;;;6183076;23;20009;-67
2022/01/09 04:04:49;;;;;;;20.92;11.57;;;-1.00;85.30;;;;;;6183622;23;20009;-67
2022/01/09 04:07:16;;;;;;;19.13;10.73;;;-1.10;85.40;;;;;;6183908;23;20110;-66
2022/01/09 04:09:45;;;;;;;17.40;10.20;;;-1.10;85.30;;;;;;6183435;23;20451;-66
2022/01/09 04:12:17;;;;;;;19.25;10.30;;;-1.10;85.30;;;;;;6183379;23;20401;-66
2022/01/09 04:14:47;;;;;;;19.05;10.90;;;-1.00;85.40;;;;;;6182515;23;20008;-67
2022/01/09 04:17:22;;;;;;;21.52;11.80;;;-1.10;85.30;;;;;;6183109;23;20303;-66
2022/01/09 04:19:48;;;;;;;20.98;11.35;;;-1.00;85.40;;;;;;6183013;23;20429;-67
2022/01/09 04:22:14;;;;;;;22.17;12.20;;;-1.10;85.40;;;;;;6182995;23;20076;-67
2022/01/09 04:24:39;;;;;;;22.52;11.80;;;-1.00;85.70;;;;;;6182730;23;20028;-67
2022/01/09 04:27:05;;;;;;;21.05;11.82;;;-1.00;85.90;;;;;;6182899;23;20072;-66
2022/01/09 04:29:31;;;;;;;22.58;12.10;;;-1.10;85.90;;;;;;6182971;23;20109;-66
2022/01/09 04:31:56;;;;;;;21.30;11.85;;;-1.00;86.10;;;;;;6182857;23;20318;-67
2022/01/09 04:34:22;;;;;;;20.67;12.07;;;-1.00;86.20;;;;;;6182893;23;20016;-65
2022/01/09 04:36:48;;;;;;;21.23;11.90;;;-1.00;86.10;;;;;;6182797;23;20500;-65
2022/01/09 04:39:13;;;;;;;20.90;11.93;;;-1.00;86.30;;;;;;6182825;23;20123;-66
2022/01/09 04:41:39;;;;;;;21.88;13.40;;;-1.00;86.20;;;;;;6182903;23;20028;-65
2022/01/09 04:44:05;;;;;;;23.13;12.73;;;-1.00;86.60;;;;;;6182920;23;20028;-66
2022/01/09 04:46:41;;;;;;;21.73;12.60;;;-1.00;86.60;;;;;;6182673;23;20013;-66
2022/01/09 04:49:06;;;;;;;21.50;12.75;;;-1.00;86.90;;;;;;6182890;23;19997;-65
2022/01/09 04:51:32;;;;;;;24.08;13.15;;;-1.00;87.20;;;;;;6182841;23;20001;-66
2022/01/09 04:53:58;;;;;;;20.38;12.98;;;-1.00;87.80;;;;;;6183021;23;20431;-67
2022/01/09 04:56:23;;;;;;;20.20;12.40;;;-1.00;87.30;;;;;;6182693;23;20375;-67
2022/01/09 04:58:49;;;;;;;22.88;13.77;;;-1.00;87.50;;;;;;6182919;23;20029;-68
2022/01/09 05:01:14;;;;;;;23.10;13.82;;;-1.00;87.60;;;;;;6182960;23;20086;-66
2022/01/09 05:03:40;;;;;;;24.92;14.40;;;-1.00;87.60;;;;;;6182782;23;20039;-65
2022/01/09 05:06:06;;;;;;;26.48;15.52;;;-1.00;87.70;;;;;;6182598;23;20001;-66
2022/01/09 05:08:32;;;;;;;25.42;15.23;;;-1.00;87.80;;;;;;6182932;23;20020;-67
2022/01/09 05:10:57;;;;;;;28.80;17.17;;;-1.00;87.70;;;;;;6183711;23;20100;-66
2022/01/09 05:13:23;;;;;;;28.85;17.50;;;-1.00;87.70;;;;;;6182961;23;19998;-66
2022/01/09 05:15:49;;;;;;;30.33;17.02;;;-1.00;87.70;;;;;;6182716;23;20051;-67
2022/01/09 05:18:15;;;;;;;29.52;17.65;;;-1.00;87.80;;;;;;6182626;23;20325;-67
2022/01/09 05:20:42;;;;;;;29.58;17.45;;;-1.00;87.70;;;;;;6183127;23;20378;-66
2022/01/09 05:23:08;;;;;;;29.90;17.10;;;-1.00;87.70;;;;;;6182659;23;19997;-66
2022/01/09 05:25:33;;;;;;;27.42;16.50;;;-1.00;87.70;;;;;;6182888;23;20001;-67
2022/01/09 05:27:59;;;;;;;28.00;16.38;;;-1.00;87.70;;;;;;6184609;23;20436;-67
2022/01/09 05:30:25;;;;;;;30.35;18.08;;;-1.00;87.80;;;;;;6184525;23;20365;-67
2022/01/09 05:32:50;;;;;;;28.63;15.82;;;-1.00;87.90;;;;;;6184593;23;20426;-68
2022/01/09 05:35:16;;;;;;;26.58;15.70;;;-1.00;87.90;;;;;;6184434;23;20001;-66
2022/01/09 05:37:42;;;;;;;27.40;16.65;;;-1.00;87.90;;;;;;6184515;23;20005;-68
2022/01/09 05:40:08;;;;;;;26.20;15.68;;;-1.00;87.90;;;;;;6184278;23;20005;-67
2022/01/09 05:42:33;;;;;;;28.42;16.55;;;-1.00;87.90;;;;;;6184133;23;20079;-68
2022/01/09 05:45:00;;;;;;;26.98;16.25;;;-1.00;88.00;;;;;;6184352;23;20036;-66
2022/01/09 05:47:26;;;;;;;29.58;16.65;;;-1.00;87.90;;;;;;6184378;23;20055;-67
2022/01/09 05:49:51;;;;;;;27.17;17.38;;;-1.00;87.90;;;;;;6158043;23;20009;-66
2022/01/09 05:52:17;;;;;;;27.17;16.80;;;-1.00;88.00;;;;;;6184570;23;20484;-66
2022/01/09 05:54:42;;;;;;;26.95;16.48;;;-1.00;88.00;;;;;;6184343;23;20001;-66
2022/01/09 05:57:08;;;;;;;24.55;14.38;;;-0.90;88.00;;;;;;6184410;23;20005;-66
2022/01/09 05:59:34;;;;;;;27.02;15.90;;;-0.90;87.80;;;;;;6184167;23;20012;-67
2022/01/09 06:01:59;;;;;;;28.17;16.02;;;-0.90;87.80;;;;;;6184311;23;20328;-67
2022/01/09 06:04:25;;;;;;;26.92;16.30;;;-0.90;87.90;;;;;;6184228;23;20005;-67
2022/01/09 06:06:51;;;;;;;27.50;16.75;;;-0.90;87.70;;;;;;6157678;23;20009;-68
2022/01/09 06:09:17;;;;;;;27.65;16.02;;;-0.90;87.60;;;;;;6184234;23;20417;-68
2022/01/09 06:11:43;;;;;;;26.80;15.52;;;-0.80;87.60;;;;;;6184278;23;20417;-68
2022/01/09 06:14:08;;;;;;;28.67;15.88;;;-0.80;87.70;;;;;;6184108;23;20004;-67
2022/01/09 06:16:34;;;;;;;29.75;16.60;;;-0.80;87.70;;;;;;6183989;23;20001;-67
2022/01/09 06:19:00;;;;;;;25.65;15.40;;;-0.80;87.60;;;;;;6184204;23;20083;-67
2022/01/09 06:21:28;;;;;;;28.45;15.65;;;-0.80;87.60;;;;;;6184042;23;20398;-67
2022/01/09 06:23:54;;;;;;;26.48;15.65;;;-0.80;87.50;;;;;;6183765;23;20044;-67
2022/01/09 06:26:20;;;;;;;32.55;17.50;;;-0.80;87.60;;;;;;6183836;23;20001;-68
2022/01/09 06:28:46;;;;;;;29.27;16.80;;;-0.70;87.50;;;;;;6184055;23;20004;-66
2022/01/09 06:31:12;;;;;;;29.10;16.40;;;-0.70;87.50;;;;;;6183821;23;20432;-67
2022/01/09 06:33:37;;;;;;;30.90;17.55;;;-0.70;87.50;;;;;;6183858;23;20064;-67
2022/01/09 06:36:03;;;;;;;28.38;15.93;;;-0.70;87.60;;;;;;6183971;23;20008;-67
2022/01/09 06:38:29;;;;;;;28.70;15.43;;;-0.70;87.50;;;;;;6183217;23;20001;-68
2022/01/09 06:40:55;;;;;;;30.48;17.13;;;-0.70;87.40;;;;;;6184278;23;20063;-66
2022/01/09 06:43:21;;;;;;;31.88;16.75;;;-0.70;87.40;;;;;;6183915;23;19997;-67
2022/01/09 06:45:47;;;;;;;28.15;15.93;;;-0.70;87.20;;;;;;6157397;23;20043;-68
2022/01/09 06:48:12;;;;;;;32.80;17.23;;;-0.70;87.20;;;;;;6183748;23;20000;-67
2022/01/09 06:50:38;;;;;;;32.78;17.65;;;-0.70;87.50;;;;;;6183835;23;20001;-67
2022/01/09 06:53:04;;;;;;;29.33;15.95;;;-0.70;87.50;;;;;;6183698;23;20139;-67
2022/01/09 06:55:29;;;;;;;33.25;17.48;;;-0.70;87.40;;;;;;6183762;23;20001;-66
2022/01/09 06:57:55;;;;;;;29.45;16.05;;;-0.70;87.30;;;;;;6157359;23;20005;-66
2022/01/09 07:00:21;;;;;;;31.40;17.10;;;-0.60;87.40;;;;;;6183716;23;20032;-66
2022/01/09 07:02:47;;;;;;;31.55;16.55;;;-0.60;87.70;;;;;;6183742;23;20437;-68
2022/01/09 07:05:13;;;;;;;30.52;16.25;;;-0.60;87.10;;;;;;6183518;23;20016;-67
2022/01/09 07:07:39;;;;;;;30.73;16.33;;;-0.60;87.30;;;;;;6183425;23;20009;-66
2022/01/09 07:10:05;;;;;;;29.75;15.15;;;-0.60;87.10;;;;;;6157047;23;20081;-67
2022/01/09 07:12:31;;;;;;;31.48;16.23;;;-0.50;87.20;;;;;;6183479;23;20032;-69
2022/01/09 07:14:57;;;;;;;33.92;17.38;;;-0.50;87.10;;;;;;6183493;23;19998;-67
2022/01/09 07:17:23;;;;;;;28.85;15.93;;;-0.50;87.10;;;;;;6183551;23;20008;-66
2022/01/09 07:19:48;;;;;;;32.17;16.58;;;-0.50;87.00;;;;;;6183553;23;20369;-67
2022/01/09 07:22:14;;;;;;;28.65;15.55;;;-0.50;87.10;;;;;;6156954;23;20013;-67
2022/01/09 07:24:40;;;;;;;32.42;16.23;;;-0.50;87.10;;;;;;6183668;23;20008;-68
2022/01/09 07:27:05;;;;;;;28.98;15.35;;;-0.50;87.00;;;;;;6184209;23;20005;-68
2022/01/09 07:29:31;;;;;;;31.05;16.17;;;-0.50;87.10;;;;;;6183539;23;20020;-68
2022/01/09 07:31:57;;;;;;;31.67;16.13;;;-0.40;87.10;;;;;;6183417;23;20367;-68
2022/01/09 07:34:22;;;;;;;29.25;15.85;;;-0.40;87.00;;;;;;6183532;23;20016;-68
2022/01/09 07:36:48;;;;;;;28.02;15.02;;;-0.40;87.00;;;;;;6183005;23;20075;-67
2022/01/09 07:39:14;;;;;;;34.05;16.63;;;-0.40;86.90;;;;;;6183463;23;20005;-68
2022/01/09 07:41:41;;;;;;;31.00;15.32;;;-0.30;86.80;;;;;;6183385;23;20005;-67
2022/01/09 07:44:07;;;;;;;30.75;15.98;;;-0.40;86.80;;;;;;6183163;23;20033;-68
2022/01/09 07:46:33;;;;;;;34.30;16.08;;;-0.40;86.70;;;;;;6183034;23;20012;-68
2022/01/09 07:48:59;;;;;;;29.48;15.35;;;-0.30;86.70;;;;;;6183437;23;20008;-68
2022/01/09 07:51:25;;;;;;;32.03;15.68;;;-0.40;86.60;;;;;;6183513;23;20372;-68
2022/01/09 07:53:50;;;;;;;29.58;14.98;;;-0.40;86.90;;;;;;6183262;23;20050;-68
2022/01/09 07:56:16;;;;;;;30.23;15.95;;;-0.40;86.90;;;;;;6183120;23;20005;-68
2022/01/09 07:58:41;;;;;;;33.15;15.68;;;-0.30;86.90;;;;;;6183301;23;20012;-67
2022/01/09 08:01:07;;;;;;;26.17;14.38;;;-0.30;86.80;;;;;;6183292;23;20001;-70
2022/01/09 08:03:34;;;;;;;35.28;18.25;;;-0.30;86.60;;;;;;6183196;23;20059;-68
2022/01/09 08:06:00;;;;;;;34.45;17.63;;;-0.20;86.60;;;;;;6182946;23;20088;-68
2022/01/09 08:08:26;;;;;;;31.23;16.20;;;-0.30;86.70;;;;;;6183267;23;20507;-68
2022/01/09 08:10:52;;;;;;;29.63;14.77;;;-0.30;86.70;;;;;;6183511;23;20116;-68
2022/01/09 08:13:18;;;;;;;27.38;14.10;;;-0.20;86.70;;;;;;6183133;23;20035;-68
2022/01/09 08:15:44;;;;;;;28.52;14.13;;;-0.20;86.80;;;;;;6182765;23;20080;-68
2022/01/09 08:18:09;;;;;;;26.13;14.35;;;-0.20;86.60;;;;;;6183049;23;20028;-67
2022/01/09 08:20:35;;;;;;;25.15;13.73;;;-0.20;86.40;;;;;;6182939;23;19997;-67
2022/01/09 08:23:01;;;;;;;26.45;14.10;;;-0.20;86.40;;;;;;6156591;23;20009;-68
2022/01/09 08:25:27;;;;;;;28.25;14.70;;;-0.20;86.30;;;;;;6183026;23;20007;-65
2022/01/09 08:27:53;;;;;;;27.63;14.88;;;-0.10;86.20;;;;;;6182879;23;20002;-66
2022/01/09 08:30:19;;;;;;;28.92;14.85;;;-0.10;86.40;;;;;;6182896;23;20271;-67
2022/01/09 08:32:46;;;;;;;28.23;14.25;;;-0.10;86.40;;;;;;6182837;23;20009;-67
2022/01/09 08:35:12;;;;;;;28.48;14.38;;;-0.10;86.40;;;;;;6182624;23;20009;-67
2022/01/09 08:37:41;;;;;;;26.15;14.23;;;0.00;86.30;;;;;;6182870;23;20328;-68
2022/01/09 08:40:09;;;;;;;25.25;13.35;;;0.00;86.30;;;;;;6182865;23;20040;-68
2022/01/09 08:42:35;;;;;;;24.65;13.13;;;0.00;86.30;;;;;;6182768;23;20005;-67
2022/01/09 08:45:01;;;;;;;24.58;13.15;;;0.00;86.40;;;;;;6182762;23;20092;-67
2022/01/09 08:47:26;;;;;;;23.75;13.25;;;0.10;86.30;;;;;;6182906;23;20008;-68
2022/01/09 08:49:52;;;;;;;24.17;12.40;;;0.10;86.30;;;;;;6182965;23;20021;-67
2022/01/09 08:52:18;;;;;;;24.35;13.45;;;0.10;86.20;;;;;;6182833;23;20382;-68
2022/01/09 08:54:44;;;;;;;23.02;12.10;;;0.20;86.10;;;;;;6182789;23;20001;-68
2022/01/09 08:57:09;;;;;;;23.60;13.00;;;0.20;86.00;;;;;;6182922;23;20116;-67
2022/01/09 08:59:35;;;;;;;25.23;12.43;;;0.20;85.90;;;;;;6156459;23;20012;-68
2022/01/09 09:02:01;;;;;;;23.48;13.07;;;0.30;86.10;;;;;;6184120;23;20012;-67
2022/01/09 09:04:26;;;;;;;24.08;12.90;;;0.30;85.90;;;;;;6184732;23;20314;-67
2022/01/09 09:06:52;;;;;;;27.27;13.73;;;0.30;85.70;;;;;;6185171;23;20008;-68
2022/01/09 09:09:18;;;;;;;25.02;13.88;;;0.30;85.50;;;;;;6185693;23;19997;-66
2022/01/09 09:11:44;;;;;;;25.00;13.70;;;0.30;85.60;;;;;;6184559;23;20001;-67
2022/01/09 09:14:10;;;;;;;27.92;14.88;;;0.30;85.60;;;;;;6158486;23;20487;-66
2022/01/09 09:16:35;;;;;;;25.13;14.00;;;0.30;85.50;;;;;;6184383;23;20100;-67
2022/01/09 09:19:01;;;;;;;27.45;15.57;;;0.20;85.60;;;;;;6184704;23;20012;-66
2022/01/09 09:21:27;;;;;;;26.13;14.30;;;0.20;85.50;;;;;;6158280;23;20008;-67
2022/01/09 09:23:52;;;;;;;26.48;14.68;;;0.20;85.60;;;;;;6184840;23;20080;-67
2022/01/09 09:26:18;;;;;;;25.80;13.73;;;0.20;85.70;;;;;;6184301;23;20366;-67
2022/01/09 09:28:44;;;;;;;26.75;14.82;;;0.20;85.90;;;;;;6184680;23;20321;-67
2022/01/09 09:31:10;;;;;;;23.92;13.98;;;0.20;85.90;;;;;;6184272;23;20033;-67
2022/01/09 09:33:35;;;;;;;26.90;15.07;;;0.20;85.90;;;;;;6184329;23;20029;-66
2022/01/09 09:36:03;;;;;;;27.10;15.07;;;0.30;85.90;;;;;;6184495;23;20378;-67
2022/01/09 09:38:32;;;;;;;26.77;14.35;;;0.30;85.60;;;;;;6184127;23;20017;-68
2022/01/09 09:40:58;;;;;;;26.58;14.52;;;0.30;85.70;;;;;;6184457;23;20001;-67
2022/01/09 09:43:24;;;;;;;29.67;15.45;;;0.30;85.80;;;;;;6184243;23;19997;-68
2022/01/09 09:45:51;;;;;;;27.30;15.75;;;0.20;85.80;;;;;;6184098;23;20007;-68
2022/01/09 09:48:17;;;;;;;29.50;15.20;;;0.20;85.90;;;;;;6184169;23;20031;-68
2022/01/09 09:50:43;;;;;;;26.85;14.70;;;0.20;86.10;;;;;;6184321;23;20032;-69
2022/01/09 09:53:08;;;;;;;27.08;15.20;;;0.30;86.40;;;;;;6184337;23;19996;-67
2022/01/09 09:55:34;;;;;;;29.00;16.13;;;0.30;86.40;;;;;;6184335;23;20032;-69
2022/01/09 09:58:00;;;;;;;27.58;15.45;;;0.40;86.30;;;;;;6184495;23;20012;-67
2022/01/09 10:00:26;;;;;;;31.40;15.90;;;0.40;86.20;;;;;;6158086;23;20460;-68
2022/01/09 10:02:56;;;;;;;27.92;15.63;;;0.50;86.10;;;;;;6184212;23;20384;-67
2022/01/09 10:05:27;;;;;;;32.05;18.20;;;0.50;85.80;;;;;;6183724;23;20016;-67
2022/01/09 10:08:15;;;;;;;25.25;14.90;;;0.50;85.60;;;;;;6184049;23;20005;-67
2022/01/09 10:10:41;;;;;;;25.27;14.60;;;0.50;85.80;;;;;;6183790;23;20072;-67
2022/01/09 10:13:12;;;;;;;26.67;14.93;;;0.60;85.90;;;;;;6183548;23;19998;-68
2022/01/09 10:15:46;;;;;;;24.85;14.63;;;0.60;85.80;;;;;;6157133;23;20138;-68
2022/01/09 10:18:11;;;;;;;24.05;13.27;;;0.60;85.80;;;;;;6183938;23;20008;-67
2022/01/09 10:20:37;;;;;;;25.58;13.68;;;0.60;85.70;;;;;;6183856;23;20124;-67
2022/01/09 10:23:03;;;;;;;25.33;14.60;;;0.70;85.80;;;;;;6183696;23;20012;-68
2022/01/09 10:25:38;;;;;;;27.15;15.23;;;0.70;85.80;;;;;;6183729;23;20012;-68
2022/01/09 10:28:12;;;;;;;28.50;15.32;;;0.70;85.80;;;;;;6184178;23;20008;-67
2022/01/09 10:30:45;;;;;;;29.95;15.38;;;0.70;85.70;;;;;;6184067;23;20435;-68
2022/01/09 10:33:15;;;;;;;28.88;15.35;;;0.70;85.50;;;;;;6183941;23;20037;-68
2022/01/09 10:35:43;;;;;;;28.63;14.68;;;0.70;85.80;;;;;;6183578;23;20089;-67
2022/01/09 10:38:16;;;;;;;26.45;13.60;;;0.60;86.00;;;;;;6183793;23;20000;-68
2022/01/09 10:40:43;;;;;;;;;;;0.60;86.00;;;;;;6184680;23;20005;-68
2022/01/09 10:43:20;;;;;;;28.00;14.60;;;0.60;86.10;;;;;;6183790;23;19975;-67
2022/01/09 10:46:01;;;;;;;30.20;15.95;;;0.60;86.00;;;;;;6183476;23;20016;-68
2022/01/09 10:48:34;;;;;;;30.98;15.02;;;0.60;86.10;;;;;;6183765;23;20081;-68
2022/01/09 10:51:02;;;;;;;28.58;14.60;;;0.60;86.30;;;;;;6183915;23;19997;-67
2022/01/09 10:53:30;;;;;;;27.73;15.13;;;0.60;86.60;;;;;;6157118;23;20055;-67
2022/01/09 10:56:21;;;;;;;27.27;13.57;;;0.60;86.60;;;;;;6183356;23;20029;-67
2022/01/09 10:58:52;;;;;;;31.08;15.05;;;0.60;86.70;;;;;;6183745;23;20084;-69
2022/01/09 11:01:31;;;;;;;24.73;13.15;;;0.60;86.70;;;;;;6184218;23;20005;-68
2022/01/09 11:03:57;;;;;;;29.05;14.32;;;0.60;86.60;;;;;;6183786;23;20436;-67
2022/01/09 11:06:30;;;;;;;31.88;15.27;;;0.70;86.70;;;;;;6157183;23;20455;-66
2022/01/09 11:08:56;;;;;;;30.13;14.80;;;0.60;86.60;;;;;;6183656;23;20000;-67
2022/01/09 11:13:56;;;;;;;;;;;0.60;86.90;;;;;;6194686;23;20028;-67
2022/01/09 11:16:33;;;;;;;26.30;12.95;;;0.60;87.00;;;;;;6183987;23;19927;-67
2022/01/09 11:19:14;;;;;;;22.70;11.82;;;0.60;87.10;;;;;;6183528;23;20013;-69
2022/01/09 11:21:59;;;;;;;25.17;13.43;;;0.60;87.30;;;;;;6183831;23;20024;-69
2022/01/09 11:24:44;;;;;;;23.77;11.48;;;0.70;87.30;;;;;;6183717;23;20005;-69
2022/01/09 11:27:18;;;;;;;21.00;11.18;;;0.70;87.30;;;;;;6183328;23;20047;-67
2022/01/09 11:30:14;;;;;;;27.92;13.27;;;0.80;87.30;;;;;;6183669;23;20374;-68
2022/01/09 11:32:42;;;;;;;26.98;13.90;;;0.90;87.20;;;;;;6183453;23;20028;-69
2022/01/09 11:35:20;;;;;;;27.35;13.93;;;0.90;86.90;;;;;;6183633;23;20072;-67
2022/01/09 11:38:19;;;;;;;27.08;13.40;;;0.90;87.00;;;;;;6183358;23;20005;-69
2022/01/09 11:40:45;;;;;;;22.88;11.77;;;0.90;86.90;;;;;;6183249;23;20001;-70
2022/01/09 11:43:16;;;;;;;25.67;13.52;;;0.90;87.10;;;;;;6183663;23;20080;-68
2022/01/09 11:45:46;;;;;;;24.42;13.23;;;1.00;87.00;;;;;;6183262;23;20009;-68
2022/01/09 11:48:14;;;;;;;22.67;11.60;;;1.00;87.10;;;;;;6184097;23;20317;-67
2022/01/09 11:51:04;;;;;;;22.90;11.65;;;1.00;87.30;;;;;;6183655;23;20024;-67
2022/01/09 11:54:02;;;;;;;23.20;11.50;;;1.10;87.30;;;;;;6183206;23;19997;-68
2022/01/09 11:57:10;;;;;;;20.52;11.02;;;1.10;87.20;;;;;;6183313;23;20074;-68
2022/01/09 11:59:38;;;;;;;23.55;11.40;;;1.20;87.20;;;;;;6183118;23;20005;-67
2022/01/09 12:02:15;;;;;;;22.50;11.40;;;1.20;87.00;;;;;;6183280;23;20060;-67
2022/01/09 12:04:41;;;;;;;24.45;11.98;;;1.20;86.90;;;;;;6156677;23;20048;-68
2022/01/09 12:07:18;;;;;;;26.95;13.50;;;1.20;86.90;;;;;;6156984;23;20362;-68
2022/01/09 12:09:47;;;;;;;25.67;12.98;;;1.20;87.50;;;;;;6182885;23;19997;-67
2022/01/09 12:12:15;;;;;;;26.17;13.95;;;1.20;86.90;;;;;;6182991;23;20007;-67
2022/01/09 12:17:34;;;;;;;26.40;13.02;;;1.20;87.10;;;;;;6183001;23;20031;-68
2022/01/09 12:20:12;;;;;;;28.27;13.60;;;1.20;87.30;;;;;;6183218;23;20005;-67
2022/01/09 12:22:48;;;;;;;26.65;13.38;;;1.20;87.30;;;;;;6182952;23;20429;-67
2022/01/09 12:25:22;;;;;;;26.48;13.80;;;1.10;87.60;;;;;;6183097;23;20008;-68
2022/01/09 12:28:10;;;;;;;27.63;14.68;;;1.10;87.70;;;;;;6156726;23;20357;-67
2022/01/09 12:30:44;;;;;;;25.55;12.35;;;1.10;88.10;;;;;;6182894;23;19997;-68
2022/01/09 12:33:11;;;;;;;27.80;13.05;;;1.10;87.90;;;;;;6183057;23;20333;-67
2022/01/09 12:35:40;;;;;;;26.08;12.77;;;1.00;87.90;;;;;;6182695;23;20005;-67
2022/01/09 12:38:06;;;;;;;27.33;13.23;;;1.00;87.90;;;;;;6182943;23;20413;-68
2022/01/09 12:40:35;;;;;;;29.23;14.02;;;1.00;88.10;;;;;;6183365;23;20001;-68
2022/01/09 12:43:02;;;;;;;27.63;13.95;;;1.00;88.30;;;;;;6182892;23;20009;-69